Аэропорт
Кишинев (LUKK)

 LUKK / KIV
vACC Молдова
Кишинев (LUUU)
Кишинев (LUUU)
 46.92770, 28.93100  / 399 ft

 LUKK 210100Z 11003KT 0300 0250S R08/0400N FG VV006 09/08 Q1023 R08/CLRD// NOSIG
 TAF AMD LUKK 210007Z 2100/2124 14004KT 0200 FG VV001 BECMG 2107/2109 4100 BR BKN008 BECMG 2109/2111 9999 NSW BKN015 BECMG 2111/2113 CAVOK BECMG 2120/2122 3800 BR BECMG 2122/2124 0200 FG VV///
Название сценария Тип сценария Flight Simulator 9 Flight Simulator X Prepar3D v2 Prepar3D v3 Prepar3D v4 xPlane
LUKK Chisinau X платный(+демо)


2019 © VATRUS division (Privacy Policy)